createdAt,value
2022-10-20T00:01:02.601Z,8.9
2022-10-20T00:02:09.755Z,9
2022-10-20T00:03:16.979Z,9
2022-10-20T00:04:23.948Z,8.9
2022-10-20T00:05:31.057Z,8.9
2022-10-20T00:07:44.768Z,9
2022-10-20T00:08:51.987Z,9
2022-10-20T00:09:59.005Z,9
2022-10-20T00:11:06.100Z,8.9
2022-10-20T00:12:12.610Z,9
2022-10-20T00:13:20.076Z,9
2022-10-20T00:14:27.050Z,8.9
2022-10-20T00:15:34.029Z,8.9
2022-10-20T00:16:41.074Z,8.9
2022-10-20T00:17:47.678Z,8.9
2022-10-20T00:18:54.765Z,8.9
2022-10-20T00:20:01.977Z,8.9
2022-10-20T00:21:09.007Z,8.9
2022-10-20T00:22:16.107Z,8.9
2022-10-20T00:23:22.631Z,8.9
2022-10-20T00:24:29.826Z,8.9
2022-10-20T00:25:36.898Z,9
2022-10-20T00:26:44.038Z,8.9
2022-10-20T00:27:51.108Z,8.9
2022-10-20T00:28:57.717Z,9
2022-10-20T00:30:04.765Z,9
2022-10-20T00:31:11.892Z,8.9
2022-10-20T00:32:19.025Z,9
2022-10-20T00:33:26.118Z,9
2022-10-20T00:35:39.936Z,9
2022-10-20T00:36:50.363Z,9
2022-10-20T00:37:53.992Z,8.9
2022-10-20T00:40:07.677Z,9
2022-10-20T00:41:14.795Z,9
2022-10-20T00:42:21.894Z,8.9
2022-10-20T00:43:29.045Z,8.9
2022-10-20T00:44:36.252Z,9
2022-10-20T00:45:42.783Z,8.9
2022-10-20T00:46:49.858Z,8.9
2022-10-20T00:47:56.925Z,8.9
2022-10-20T00:49:03.505Z,8.9
2022-10-20T00:50:10.558Z,8.9
2022-10-20T00:51:17.914Z,8.8
2022-10-20T00:52:24.811Z,8.8
2022-10-20T00:53:31.956Z,8.8
2022-10-20T00:54:39.057Z,8.8
2022-10-20T00:55:45.649Z,8.8
2022-10-20T00:56:52.741Z,8.8
2022-10-20T00:57:59.848Z,8.8
2022-10-20T00:59:06.978Z,8.8
2022-10-20T01:00:14.154Z,8.7
2022-10-20T01:01:20.772Z,8.7
2022-10-20T01:02:27.922Z,8.7
2022-10-20T01:03:34.878Z,8.7
2022-10-20T01:04:41.896Z,8.7
2022-10-20T01:05:49.037Z,8.6
2022-10-20T01:06:55.619Z,8.6
2022-10-20T01:08:02.738Z,8.6
2022-10-20T01:09:09.977Z,8.6
2022-10-20T01:11:24.641Z,8.6
2022-10-20T01:12:30.592Z,8.6
2022-10-20T01:13:37.783Z,8.6
2022-10-20T01:14:44.839Z,8.6
2022-10-20T01:15:51.961Z,8.6
2022-10-20T01:16:58.495Z,8.6
2022-10-20T01:18:05.630Z,8.6
2022-10-20T01:19:12.760Z,8.6
2022-10-20T01:21:27.056Z,8.6
2022-10-20T01:22:35.456Z,8.6
2022-10-20T01:23:40.644Z,8.6
2022-10-20T01:24:47.779Z,8.6
2022-10-20T01:25:54.902Z,8.6
2022-10-20T01:27:01.926Z,8.6
2022-10-20T01:28:09.061Z,8.6
2022-10-20T01:29:15.697Z,8.6
2022-10-20T01:30:22.800Z,8.6
2022-10-20T01:31:29.955Z,8.6
2022-10-20T01:32:37.046Z,8.6
2022-10-20T01:33:44.109Z,8.6
2022-10-20T01:34:52.966Z,8.7
2022-10-20T01:35:57.807Z,8.7
2022-10-20T01:37:04.910Z,8.7
2022-10-20T01:38:11.958Z,8.7
2022-10-20T01:39:19.098Z,8.7
2022-10-20T01:40:25.674Z,8.7
2022-10-20T01:41:32.771Z,8.7
2022-10-20T01:42:39.908Z,8.7
2022-10-20T01:43:47.037Z,8.7
2022-10-20T01:44:53.532Z,8.7
2022-10-20T01:46:00.736Z,8.7
2022-10-20T01:47:07.787Z,8.8
2022-10-20T01:48:14.933Z,8.8
2022-10-20T01:49:22.003Z,8.8
2022-10-20T01:50:29.211Z,8.8
2022-10-20T01:51:35.848Z,8.8
2022-10-20T01:52:42.805Z,8.8
2022-10-20T01:53:49.919Z,8.8
2022-10-20T01:54:56.999Z,8.8
2022-10-20T01:56:04.143Z,8.8
2022-10-20T01:57:10.697Z,8.8
2022-10-20T01:58:17.804Z,8.8
2022-10-20T01:59:24.902Z,8.8
2022-10-20T02:00:32.016Z,8.8
2022-10-20T02:03:52.808Z,8.8
2022-10-20T02:04:59.938Z,8.8
2022-10-20T02:06:06.617Z,8.8
2022-10-20T02:07:13.608Z,8.8
2022-10-20T02:08:20.728Z,8.8
2022-10-20T02:09:27.825Z,8.8
2022-10-20T02:10:34.909Z,8.8
2022-10-20T02:11:42.019Z,8.8
2022-10-20T02:12:48.598Z,8.8
2022-10-20T02:15:02.840Z,8.8
2022-10-20T02:16:09.997Z,8.8
2022-10-20T02:17:17.078Z,8.9
2022-10-20T02:18:23.656Z,8.9
2022-10-20T02:19:30.727Z,8.9
2022-10-20T02:20:37.825Z,8.9
2022-10-20T02:21:45.036Z,8.9
2022-10-20T02:22:52.050Z,8.9
2022-10-20T02:23:58.657Z,8.8
2022-10-20T02:25:05.779Z,8.8
2022-10-20T02:26:12.897Z,8.8
2022-10-20T02:27:20.027Z,8.8
2022-10-20T02:28:27.061Z,8.8
2022-10-20T02:29:33.637Z,8.8
2022-10-20T02:30:40.838Z,8.8
2022-10-20T02:31:47.845Z,8.8
2022-10-20T02:32:54.998Z,8.8
2022-10-20T02:35:08.696Z,8.8
2022-10-20T02:36:15.746Z,8.8
2022-10-20T02:37:22.833Z,8.8
2022-10-20T02:38:30.088Z,8.8
2022-10-20T02:39:37.087Z,8.8
2022-10-20T02:40:43.727Z,8.8
2022-10-20T02:41:50.719Z,8.8
2022-10-20T02:44:04.969Z,8.8
2022-10-20T02:45:12.071Z,8.8
2022-10-20T02:46:18.700Z,8.8
2022-10-20T02:47:25.752Z,8.8
2022-10-20T02:48:32.832Z,8.8
2022-10-20T02:49:40.006Z,8.8
2022-10-20T02:50:47.121Z,8.8
2022-10-20T02:51:53.655Z,8.8
2022-10-20T02:53:00.767Z,8.8
2022-10-20T02:54:07.911Z,8.8
2022-10-20T02:55:15.037Z,8.8
2022-10-20T02:56:22.539Z,8.8
2022-10-20T02:57:28.663Z,8.8
2022-10-20T02:58:35.807Z,8.8
2022-10-20T02:59:42.846Z,8.8
2022-10-20T03:00:51.142Z,8.7
2022-10-20T03:01:56.629Z,8.7
2022-10-20T03:03:03.634Z,8.7
2022-10-20T03:04:10.843Z,8.7
2022-10-20T03:05:17.936Z,8.7
2022-10-20T03:06:25.074Z,8.7
2022-10-20T03:07:32.061Z,8.7
2022-10-20T03:08:38.785Z,8.7
2022-10-20T03:09:45.797Z,8.7
2022-10-20T03:10:52.986Z,8.7
2022-10-20T03:12:00.052Z,8.7
2022-10-20T03:13:07.089Z,8.7
2022-10-20T03:14:13.660Z,8.7
2022-10-20T03:15:20.866Z,8.7
2022-10-20T03:16:27.929Z,8.7
2022-10-20T03:18:41.615Z,8.7
2022-10-20T03:19:48.724Z,8.7
2022-10-20T03:20:55.877Z,8.8
2022-10-20T03:22:02.870Z,8.8
2022-10-20T03:23:10.048Z,8.8
2022-10-20T03:25:23.677Z,8.8
2022-10-20T03:26:30.824Z,8.8
2022-10-20T03:27:38.284Z,8.8
2022-10-20T03:28:45.059Z,8.8
2022-10-20T03:32:05.929Z,8.8
2022-10-20T03:33:12.955Z,8.8
2022-10-20T03:34:20.056Z,8.8
2022-10-20T03:35:26.627Z,8.8
2022-10-20T03:36:33.741Z,8.8
2022-10-20T03:37:40.854Z,8.8
2022-10-20T03:38:47.983Z,8.8
2022-10-20T03:39:55.030Z,8.8
2022-10-20T03:42:08.779Z,8.8
2022-10-20T03:43:15.835Z,8.8
2022-10-20T03:44:22.902Z,8.8
2022-10-20T03:45:30.104Z,8.8
2022-10-20T03:46:36.699Z,8.8
2022-10-20T03:47:43.745Z,8.8
2022-10-20T03:48:50.838Z,8.8
2022-10-20T03:49:58.040Z,8.8
2022-10-20T03:51:05.138Z,8.8
2022-10-20T03:52:11.680Z,8.8
2022-10-20T03:53:18.777Z,8.9
2022-10-20T03:54:25.850Z,8.9
2022-10-20T03:55:32.976Z,8.9
2022-10-20T03:56:40.114Z,8.9
2022-10-20T03:58:53.858Z,8.9
2022-10-20T04:00:00.830Z,8.9
2022-10-20T04:01:08.047Z,8.9
2022-10-20T04:02:15.098Z,8.9
2022-10-20T04:03:21.709Z,8.9
2022-10-20T04:04:28.799Z,8.9
2022-10-20T04:06:42.936Z,8.9
2022-10-20T04:07:50.070Z,8.9
2022-10-20T04:08:56.823Z,8.9
2022-10-20T04:10:03.735Z,8.9
2022-10-20T04:11:10.950Z,8.9
2022-10-20T04:12:17.985Z,8.9
2022-10-20T04:13:25.128Z,8.9
2022-10-20T04:14:31.658Z,9
2022-10-20T04:15:38.826Z,9
2022-10-20T04:16:45.886Z,9
2022-10-20T04:17:52.959Z,9
2022-10-20T04:19:00.116Z,9
2022-10-20T04:20:06.727Z,9
2022-10-20T04:22:20.866Z,9
2022-10-20T04:23:28.579Z,9
2022-10-20T04:24:34.598Z,9
2022-10-20T04:27:55.937Z,9
2022-10-20T04:29:03.019Z,9
2022-10-20T04:30:09.617Z,9
2022-10-20T04:31:16.697Z,9
2022-10-20T04:32:24.308Z,9
2022-10-20T04:33:30.866Z,9
2022-10-20T04:34:38.013Z,9
2022-10-20T04:35:44.737Z,9
2022-10-20T04:36:51.809Z,9
2022-10-20T04:37:58.867Z,9
2022-10-20T04:39:05.909Z,9
2022-10-20T04:40:13.027Z,9
2022-10-20T04:41:19.619Z,9
2022-10-20T04:42:26.728Z,9
2022-10-20T04:43:33.778Z,9
2022-10-20T04:44:40.885Z,8.9
2022-10-20T04:45:48.021Z,9
2022-10-20T04:48:01.775Z,9
2022-10-20T04:49:08.847Z,9
2022-10-20T04:50:15.950Z,9
2022-10-20T04:51:23.004Z,9
2022-10-20T04:52:29.617Z,9
2022-10-20T04:53:36.720Z,9
2022-10-20T04:54:43.786Z,8.9
2022-10-20T04:55:50.897Z,8.9
2022-10-20T04:56:58.107Z,8.9
2022-10-20T04:58:09.755Z,8.9
2022-10-20T05:00:18.309Z,8.9
2022-10-20T05:01:26.129Z,8.9
2022-10-20T05:02:35.581Z,8.9
2022-10-20T05:03:39.615Z,8.9
2022-10-20T05:04:47.827Z,8.9
2022-10-20T05:05:53.866Z,8.9
2022-10-20T05:07:01.017Z,8.9
2022-10-20T05:08:08.077Z,8.9
2022-10-20T05:09:14.830Z,8.9
2022-10-20T05:10:21.743Z,8.9
2022-10-20T05:11:28.878Z,8.9
2022-10-20T05:12:36.206Z,8.9
2022-10-20T05:13:43.068Z,8.9
2022-10-20T05:14:49.642Z,8.8
2022-10-20T05:15:56.848Z,8.8
2022-10-20T05:17:06.505Z,8.8
2022-10-20T05:18:10.939Z,8.8
2022-10-20T05:19:18.107Z,8.8
2022-10-20T05:20:24.685Z,8.8
2022-10-20T05:21:31.839Z,8.8
2022-10-20T05:22:39.304Z,8.8
2022-10-20T05:23:45.974Z,8.8
2022-10-20T05:25:59.745Z,8.9
2022-10-20T05:27:06.728Z,8.9
2022-10-20T05:29:20.960Z,8.9
2022-10-20T05:30:28.108Z,8.9
2022-10-20T05:31:34.667Z,8.9
2022-10-20T05:32:41.733Z,8.9
2022-10-20T05:33:48.897Z,8.9
2022-10-20T05:34:56.019Z,8.9
2022-10-20T05:36:03.195Z,8.8
2022-10-20T05:37:09.697Z,8.8
2022-10-20T05:38:16.885Z,8.8
2022-10-20T05:39:23.895Z,8.8
2022-10-20T05:40:31.026Z,8.8
2022-10-20T05:41:39.013Z,8.8
2022-10-20T05:42:44.691Z,8.8
2022-10-20T05:43:51.808Z,8.8
2022-10-20T05:44:58.879Z,8.8
2022-10-20T05:46:06.561Z,8.8
2022-10-20T05:47:12.574Z,8.8
2022-10-20T05:48:19.739Z,8.8
2022-10-20T05:49:26.894Z,8.8
2022-10-20T05:50:33.910Z,8.8
2022-10-20T05:51:41.027Z,8.8
2022-10-20T05:52:47.596Z,8.8
2022-10-20T05:53:54.738Z,8.8
2022-10-20T05:55:01.817Z,8.9
2022-10-20T05:57:16.057Z,8.9
2022-10-20T05:58:23.082Z,8.9
2022-10-20T05:59:29.725Z,8.8
2022-10-20T06:00:36.835Z,8.8
2022-10-20T06:01:43.972Z,8.8
2022-10-20T06:02:51.024Z,8.8
2022-10-20T06:03:57.608Z,8.8
2022-10-20T06:05:04.749Z,8.8
2022-10-20T06:06:11.848Z,8.7
2022-10-20T06:07:18.912Z,8.7
2022-10-20T06:08:26.075Z,8.7
2022-10-20T06:10:39.713Z,8.7
2022-10-20T06:11:46.952Z,8.6
2022-10-20T06:12:53.960Z,8.6
2022-10-20T06:14:01.039Z,8.6
2022-10-20T06:15:07.591Z,8.6
2022-10-20T06:16:14.780Z,8.6
2022-10-20T06:17:21.839Z,8.6
2022-10-20T06:18:28.974Z,8.6
2022-10-20T06:19:36.041Z,8.6
2022-10-20T06:20:42.605Z,8.6
2022-10-20T06:21:49.897Z,8.6
2022-10-20T06:22:56.911Z,8.6
2022-10-20T06:24:03.969Z,8.6
2022-10-20T06:25:11.065Z,8.6
2022-10-20T06:26:17.788Z,8.6
2022-10-20T06:29:39.008Z,8.7
2022-10-20T06:30:46.056Z,8.7
2022-10-20T06:31:52.712Z,8.7
2022-10-20T06:32:59.788Z,8.7
2022-10-20T06:34:06.897Z,8.7
2022-10-20T06:35:13.935Z,8.7
2022-10-20T06:36:20.550Z,8.8
2022-10-20T06:37:27.677Z,8.7
2022-10-20T06:38:34.816Z,8.7
2022-10-20T06:39:41.827Z,8.7
2022-10-20T06:40:49.005Z,8.7
2022-10-20T06:41:56.130Z,8.7
2022-10-20T06:43:02.659Z,8.7
2022-10-20T06:44:09.754Z,8.7
2022-10-20T06:45:17.827Z,8.7
2022-10-20T06:46:24.017Z,8.6
2022-10-20T06:47:31.143Z,8.6
2022-10-20T06:48:37.685Z,8.6
2022-10-20T06:49:44.764Z,8.6
2022-10-20T06:51:59.245Z,8.6
2022-10-20T06:53:05.599Z,8.6
2022-10-20T06:54:12.691Z,8.6
2022-10-20T06:55:19.745Z,8.5
2022-10-20T06:56:26.917Z,8.5
2022-10-20T06:57:34.005Z,8.5
2022-10-20T06:58:41.660Z,8.5
2022-10-20T06:59:47.678Z,8.5
2022-10-20T07:00:54.781Z,8.5
2022-10-20T07:02:02.035Z,8.5
2022-10-20T07:03:09.032Z,8.5
2022-10-20T07:04:16.130Z,8.5
2022-10-20T07:05:22.659Z,8.5
2022-10-20T07:06:29.839Z,8.5
2022-10-20T07:08:43.493Z,8.6
2022-10-20T07:09:50.589Z,8.6
2022-10-20T07:10:57.697Z,8.6
2022-10-20T07:12:04.887Z,8.6
2022-10-20T07:13:11.869Z,8.6
2022-10-20T07:14:19.581Z,8.6
2022-10-20T07:15:25.592Z,8.6
2022-10-20T07:16:32.671Z,8.6
2022-10-20T07:17:39.891Z,8.6
2022-10-20T07:18:46.889Z,8.6
2022-10-20T07:19:54.052Z,8.6
2022-10-20T07:21:00.568Z,8.6
2022-10-20T07:22:07.841Z,8.6
2022-10-20T07:23:14.826Z,8.6
2022-10-20T07:24:21.961Z,8.6
2022-10-20T07:25:29.003Z,8.6
2022-10-20T07:26:36.180Z,8.7
2022-10-20T07:27:42.760Z,8.7
2022-10-20T07:28:53.345Z,8.8
2022-10-20T07:29:56.997Z,8.8
2022-10-20T07:31:04.051Z,8.8
2022-10-20T07:33:17.835Z,8.8
2022-10-20T07:34:26.719Z,8.8
2022-10-20T07:35:31.984Z,8.8
2022-10-20T07:36:39.273Z,8.9
2022-10-20T07:37:45.674Z,8.9
2022-10-20T07:38:52.698Z,8.9
2022-10-20T07:39:59.805Z,8.9
2022-10-20T07:41:06.981Z,8.9
2022-10-20T07:42:14.204Z,8.9
2022-10-20T07:43:20.606Z,9
2022-10-20T07:44:27.814Z,9
2022-10-20T07:45:34.911Z,9
2022-10-20T07:46:41.939Z,9
2022-10-20T07:47:49.088Z,9
2022-10-20T07:49:02.767Z,9
2022-10-20T07:50:02.715Z,9
2022-10-20T07:51:09.882Z,9
2022-10-20T07:52:17.058Z,9
2022-10-20T07:53:23.589Z,9.1
2022-10-20T07:56:44.969Z,9.1
2022-10-20T07:57:51.990Z,9.1
2022-10-20T07:58:58.658Z,9.1
2022-10-20T08:00:05.679Z,9.1
2022-10-20T08:01:12.781Z,9.1
2022-10-20T08:02:19.910Z,9.1
2022-10-20T08:03:26.982Z,9.1
2022-10-20T08:04:33.568Z,9.1
2022-10-20T08:05:40.658Z,9.1
2022-10-20T08:06:47.876Z,9.1
2022-10-20T08:07:54.886Z,9.1
2022-10-20T08:09:02.086Z,9.1
2022-10-20T08:10:08.620Z,9.2
2022-10-20T08:11:15.702Z,9.1
2022-10-20T08:12:22.788Z,9.2
2022-10-20T08:13:29.961Z,9.2
2022-10-20T08:14:36.990Z,9.2
2022-10-20T08:15:43.865Z,9.2
2022-10-20T08:16:50.793Z,9.2
2022-10-20T08:17:57.824Z,9.2
2022-10-20T08:19:07.199Z,9.2
2022-10-20T08:20:15.166Z,9.2
2022-10-20T08:21:18.618Z,9.2
2022-10-20T08:23:32.827Z,9.2
2022-10-20T08:24:39.902Z,9.2
2022-10-20T08:25:47.040Z,9.2
2022-10-20T08:26:53.660Z,9.2
2022-10-20T08:28:00.688Z,9.2
2022-10-20T08:29:07.861Z,9.2
2022-10-20T08:30:23.878Z,9.2
2022-10-20T08:31:21.518Z,9.2
2022-10-20T08:32:29.158Z,9.2
2022-10-20T08:33:35.711Z,9.3
2022-10-20T08:34:42.801Z,9.3
2022-10-20T08:36:57.127Z,9.3
2022-10-20T08:38:03.622Z,9.3
2022-10-20T08:39:10.715Z,9.3
2022-10-20T08:40:17.804Z,9.3
2022-10-20T08:41:24.986Z,9.3
2022-10-20T08:42:32.030Z,9.3
2022-10-20T08:43:38.618Z,9.3
2022-10-20T08:44:45.708Z,9.3
2022-10-20T08:45:52.820Z,9.3
2022-10-20T08:47:00.036Z,9.3
2022-10-20T08:48:07.087Z,9.3
2022-10-20T08:49:13.639Z,9.3
2022-10-20T08:50:20.930Z,9.3
2022-10-20T08:51:27.833Z,9.3
2022-10-20T08:52:35.698Z,9.3
2022-10-20T08:53:42.064Z,9.3
2022-10-20T08:54:48.659Z,9.3
2022-10-20T08:55:55.755Z,9.3
2022-10-20T08:57:02.897Z,9.3
2022-10-20T08:58:09.998Z,9.3
2022-10-20T08:59:17.057Z,9.3
2022-10-20T09:00:23.602Z,9.3
2022-10-20T09:01:30.837Z,9.3
2022-10-20T09:02:37.877Z,9.3
2022-10-20T09:03:44.996Z,9.3
2022-10-20T09:04:52.034Z,9.3
2022-10-20T09:05:58.700Z,9.3
2022-10-20T09:07:05.810Z,9.3
2022-10-20T09:08:12.833Z,9.3
2022-10-20T09:09:19.963Z,9.3
2022-10-20T09:10:26.587Z,9.3
2022-10-20T09:11:33.659Z,9.3
2022-10-20T09:12:40.282Z,9.3
2022-10-20T09:14:54.953Z,9.3
2022-10-20T09:16:01.531Z,9.3
2022-10-20T09:17:11.400Z,9.3
2022-10-20T09:18:15.753Z,9.3
2022-10-20T09:19:22.895Z,9.3
2022-10-20T09:20:30.024Z,9.2
2022-10-20T09:21:36.615Z,9.2
2022-10-20T09:22:43.699Z,9.2
2022-10-20T09:24:58.396Z,9.2
2022-10-20T09:26:05.034Z,9.2
2022-10-20T09:27:11.701Z,9.2
2022-10-20T09:28:18.676Z,9.2
2022-10-20T09:29:25.779Z,9.2
2022-10-20T09:30:32.902Z,9.2
2022-10-20T09:31:40.042Z,9.2
2022-10-20T09:32:47.572Z,9.2
2022-10-20T09:33:54.010Z,9.2
2022-10-20T09:35:00.745Z,9.2
2022-10-20T09:36:07.935Z,9.2
2022-10-20T09:37:15.095Z,9.3
2022-10-20T09:38:21.646Z,9.3
2022-10-20T09:40:35.871Z,9.3
2022-10-20T09:41:42.930Z,9.3
2022-10-20T09:42:50.032Z,9.3
2022-10-20T09:43:58.039Z,9.3
2022-10-20T09:45:03.691Z,9.3
2022-10-20T09:46:10.810Z,9.3
2022-10-20T09:47:17.906Z,9.3
2022-10-20T09:48:25.043Z,9.4
2022-10-20T09:49:31.592Z,9.4
2022-10-20T09:50:38.701Z,9.4
2022-10-20T09:51:45.925Z,9.4
2022-10-20T09:53:59.528Z,9.4
2022-10-20T09:55:06.663Z,9.4
2022-10-20T09:56:13.711Z,9.4
2022-10-20T09:57:20.839Z,9.5
2022-10-20T09:58:27.975Z,9.5
2022-10-20T09:59:35.079Z,9.5
2022-10-20T10:01:48.851Z,9.5
2022-10-20T10:02:55.908Z,9.5
2022-10-20T10:04:07.833Z,9.5
2022-10-20T10:05:10.098Z,9.5
2022-10-20T10:06:16.655Z,9.5
2022-10-20T10:07:23.729Z,9.5
2022-10-20T10:08:30.901Z,9.6
2022-10-20T10:09:38.001Z,9.6
2022-10-20T10:10:44.582Z,9.6
2022-10-20T10:11:51.718Z,9.6
2022-10-20T10:12:58.821Z,9.7
2022-10-20T10:14:05.911Z,9.7
2022-10-20T10:15:12.994Z,9.7
2022-10-20T10:16:19.581Z,9.7
2022-10-20T10:17:26.681Z,9.7
2022-10-20T10:18:33.764Z,9.7
2022-10-20T10:19:40.811Z,9.8
2022-10-20T10:21:54.629Z,9.8
2022-10-20T10:23:01.611Z,9.8
2022-10-20T10:24:08.743Z,9.9
2022-10-20T10:25:15.887Z,9.9
2022-10-20T10:26:22.938Z,9.9
2022-10-20T10:27:29.597Z,9.9
2022-10-20T10:28:36.624Z,9.9
2022-10-20T10:29:43.846Z,9.9
2022-10-20T10:30:50.889Z,9.9
2022-10-20T10:31:58.104Z,9.9
2022-10-20T10:33:04.552Z,9.9
2022-10-20T10:34:11.708Z,10
2022-10-20T10:36:25.982Z,10
2022-10-20T10:37:35.014Z,10
2022-10-20T10:38:39.574Z,10
2022-10-20T10:39:46.690Z,10
2022-10-20T10:40:53.734Z,10
2022-10-20T10:42:00.994Z,10.1
2022-10-20T10:44:14.645Z,10.1
2022-10-20T10:45:21.661Z,10.1
2022-10-20T10:46:28.808Z,10.1
2022-10-20T10:47:39.345Z,10.2
2022-10-20T10:49:49.630Z,10.2
2022-10-20T10:50:56.730Z,10.2
2022-10-20T10:52:03.790Z,10.2
2022-10-20T10:53:11.529Z,10.2
2022-10-20T10:54:18.046Z,10.2
2022-10-20T10:55:47.947Z,10.2
2022-10-20T10:56:31.667Z,10.3
2022-10-20T10:57:39.232Z,10.3
2022-10-20T10:58:45.942Z,10.3
2022-10-20T10:59:53.017Z,10.3
2022-10-20T11:00:59.690Z,10.3
2022-10-20T11:02:06.734Z,10.3
2022-10-20T11:03:13.803Z,10.3
2022-10-20T11:04:20.956Z,10.3
2022-10-20T11:05:28.012Z,10.3
2022-10-20T11:06:34.683Z,10.3
2022-10-20T11:07:41.734Z,10.3
2022-10-20T11:08:48.908Z,10.3
2022-10-20T11:09:55.987Z,10.3
2022-10-20T11:11:03.047Z,10.3
2022-10-20T11:12:09.619Z,10.3
2022-10-20T11:13:16.766Z,10.4
2022-10-20T11:14:23.887Z,10.4
2022-10-20T11:15:30.894Z,10.4
2022-10-20T11:17:44.692Z,10.4
2022-10-20T11:18:51.730Z,10.4
2022-10-20T11:19:58.867Z,10.4
2022-10-20T11:21:05.981Z,10.4
2022-10-20T11:22:14.328Z,10.4
2022-10-20T11:23:19.679Z,10.4
2022-10-20T11:24:26.865Z,10.4
2022-10-20T11:25:33.861Z,10.4
2022-10-20T11:26:40.908Z,10.4
2022-10-20T11:27:47.637Z,10.5
2022-10-20T11:30:01.831Z,10.5
2022-10-20T11:31:09.032Z,10.5
2022-10-20T11:32:16.157Z,10.5
2022-10-20T11:33:22.495Z,10.5
2022-10-20T11:34:29.639Z,10.5
2022-10-20T11:35:36.969Z,10.5
2022-10-20T11:36:43.927Z,10.5
2022-10-20T11:37:51.062Z,10.5
2022-10-20T11:38:57.655Z,10.5
2022-10-20T11:40:07.823Z,10.5
2022-10-20T11:41:11.715Z,10.5
2022-10-20T11:42:19.080Z,10.5
2022-10-20T11:43:26.071Z,10.5
2022-10-20T11:44:32.660Z,10.5
2022-10-20T11:45:39.644Z,10.5
2022-10-20T11:47:53.933Z,10.5
2022-10-20T11:49:03.227Z,10.5
2022-10-20T11:50:07.605Z,10.5
2022-10-20T11:51:14.277Z,10.5
2022-10-20T11:52:21.853Z,10.5
2022-10-20T11:53:28.981Z,10.5
2022-10-20T11:54:35.972Z,10.6
2022-10-20T11:55:42.608Z,10.6
2022-10-20T11:56:49.704Z,10.6
2022-10-20T11:59:03.901Z,10.6
2022-10-20T12:00:11.173Z,10.6
2022-10-20T12:01:17.691Z,10.6
2022-10-20T12:02:24.676Z,10.6
2022-10-20T12:03:31.865Z,10.6
2022-10-20T12:04:38.907Z,10.7
2022-10-20T12:05:46.128Z,10.7
2022-10-20T12:06:52.848Z,10.7
2022-10-20T12:08:17.547Z,10.7
2022-10-20T12:09:06.976Z,10.7
2022-10-20T12:10:14.006Z,10.8
2022-10-20T12:11:21.150Z,10.8
2022-10-20T12:12:27.796Z,10.8
2022-10-20T12:13:34.899Z,10.9
2022-10-20T12:14:41.765Z,10.9
2022-10-20T12:15:48.890Z,10.9
2022-10-20T12:16:56.110Z,10.9
2022-10-20T12:18:02.702Z,10.9
2022-10-20T12:20:16.927Z,10.9
2022-10-20T12:21:24.003Z,11
2022-10-20T12:22:30.598Z,11
2022-10-20T12:23:37.598Z,11
2022-10-20T12:24:44.823Z,11
2022-10-20T12:25:51.964Z,11
2022-10-20T12:26:59.051Z,11
2022-10-20T12:28:05.750Z,11
2022-10-20T12:29:12.716Z,11
2022-10-20T12:30:19.978Z,11
2022-10-20T12:31:27.007Z,11
2022-10-20T12:32:36.288Z,11
2022-10-20T12:33:40.784Z,11
2022-10-20T12:34:47.614Z,11
2022-10-20T12:35:54.801Z,11.1
2022-10-20T12:38:09.096Z,11.1
2022-10-20T12:40:22.984Z,11.1
2022-10-20T12:41:29.925Z,11.1
2022-10-20T12:42:37.023Z,11.1
2022-10-20T12:43:44.087Z,11.1
2022-10-20T12:44:50.677Z,11.1
2022-10-20T12:45:57.852Z,11.2
2022-10-20T12:48:11.927Z,11.1
2022-10-20T12:49:19.398Z,11.1
2022-10-20T12:51:32.751Z,11.2
2022-10-20T12:52:39.907Z,11.2
2022-10-20T12:53:46.845Z,11.2
2022-10-20T12:54:54.013Z,11.2
2022-10-20T12:56:00.629Z,11.2
2022-10-20T12:58:14.868Z,11.2
2022-10-20T12:59:21.843Z,11.2
2022-10-20T13:00:29.092Z,11.2
2022-10-20T13:01:35.558Z,11.2
2022-10-20T13:02:42.706Z,11.2
2022-10-20T13:03:49.834Z,11.2
2022-10-20T13:04:56.924Z,11.2
2022-10-20T13:06:04.072Z,11.2
2022-10-20T13:07:10.623Z,11.2
2022-10-20T13:08:17.654Z,11.2
2022-10-20T13:09:24.766Z,11.2
2022-10-20T13:10:31.907Z,11.2
2022-10-20T13:11:39.029Z,11.2
2022-10-20T13:12:45.713Z,11.2
2022-10-20T13:13:52.707Z,11.2
2022-10-20T13:16:06.975Z,11.2
2022-10-20T13:17:14.067Z,11.2
2022-10-20T13:18:20.529Z,11.2
2022-10-20T13:19:27.800Z,11.3
2022-10-20T13:21:45.043Z,11.3
2022-10-20T13:22:49.376Z,11.3
2022-10-20T13:23:55.641Z,11.2
2022-10-20T13:25:02.741Z,11.3
2022-10-20T13:26:09.840Z,11.3
2022-10-20T13:27:17.053Z,11.3
2022-10-20T13:28:23.440Z,11.3
2022-10-20T13:29:30.606Z,11.3
2022-10-20T13:30:37.740Z,11.3
2022-10-20T13:31:44.787Z,11.3
2022-10-20T13:33:10.896Z,11.3
2022-10-20T13:34:04.295Z,11.3
2022-10-20T13:35:05.682Z,11.3
2022-10-20T13:36:12.659Z,11.3
2022-10-20T13:37:22.755Z,11.3
2022-10-20T13:38:26.990Z,11.3
2022-10-20T13:39:33.571Z,11.3
2022-10-20T13:40:40.562Z,11.3
2022-10-20T13:41:48.101Z,11.3
2022-10-20T13:44:04.283Z,11.3
2022-10-20T13:45:08.578Z,11.3
2022-10-20T13:46:15.594Z,11.3
2022-10-20T13:47:22.753Z,11.3
2022-10-20T13:48:29.961Z,11.3
2022-10-20T13:49:37.034Z,11.3
2022-10-20T13:50:43.592Z,11.3
2022-10-20T13:51:50.582Z,11.3
2022-10-20T13:52:57.838Z,11.3
2022-10-20T13:55:11.902Z,11.3
2022-10-20T13:56:18.609Z,11.3
2022-10-20T13:57:25.736Z,11.3
2022-10-20T13:58:32.826Z,11.3
2022-10-20T13:59:41.909Z,11.2
2022-10-20T14:00:47.205Z,11.2
2022-10-20T14:03:00.947Z,11.2
2022-10-20T14:04:07.737Z,11.2
2022-10-20T14:05:15.044Z,11.2
2022-10-20T14:06:21.917Z,11.2
2022-10-20T14:07:28.532Z,11.2
2022-10-20T14:08:35.855Z,11.2
2022-10-20T14:09:46.618Z,11.2
2022-10-20T14:11:56.992Z,11.1
2022-10-20T14:13:03.674Z,11.1
2022-10-20T14:14:10.760Z,11
2022-10-20T14:15:17.893Z,11
2022-10-20T14:16:25.038Z,11
2022-10-20T14:17:32.125Z,11
2022-10-20T14:18:38.734Z,11
2022-10-20T14:19:46.892Z,11
2022-10-20T14:20:52.858Z,11
2022-10-20T14:21:59.988Z,11
2022-10-20T14:23:07.060Z,11
2022-10-20T14:24:13.583Z,11
2022-10-20T14:26:27.864Z,11
2022-10-20T14:27:35.942Z,11
2022-10-20T14:28:42.037Z,11
2022-10-20T14:29:48.663Z,11
2022-10-20T14:30:55.661Z,11
2022-10-20T14:32:02.733Z,11
2022-10-20T14:33:10.081Z,11
2022-10-20T14:34:17.077Z,11
2022-10-20T14:35:23.641Z,11
2022-10-20T14:36:30.777Z,11
2022-10-20T14:37:38.217Z,10.9
2022-10-20T14:39:51.531Z,10.9
2022-10-20T14:40:58.577Z,10.9
2022-10-20T14:42:05.876Z,10.9
2022-10-20T14:44:30.762Z,10.9
2022-10-20T14:45:26.561Z,10.9
2022-10-20T14:46:33.547Z,10.9
2022-10-20T14:47:40.938Z,10.9
2022-10-20T14:48:47.870Z,10.8
2022-10-20T14:49:54.992Z,10.8
2022-10-20T14:51:01.456Z,10.8
2022-10-20T14:52:12.359Z,10.8
2022-10-20T14:53:15.691Z,10.8
2022-10-20T14:54:22.860Z,10.7
2022-10-20T14:55:29.974Z,10.7
2022-10-20T14:56:36.491Z,10.7
2022-10-20T14:58:50.810Z,10.7
2022-10-20T14:59:58.013Z,10.7
2022-10-20T15:01:04.879Z,10.7
2022-10-20T15:02:11.751Z,10.7
2022-10-20T15:03:18.622Z,10.6
2022-10-20T15:04:25.673Z,10.6
2022-10-20T15:05:32.886Z,10.6
2022-10-20T15:06:39.933Z,10.6
2022-10-20T15:07:46.604Z,10.5
2022-10-20T15:08:53.837Z,10.5
2022-10-20T15:10:05.202Z,10.5
2022-10-20T15:11:07.914Z,10.5
2022-10-20T15:12:14.991Z,10.4
2022-10-20T15:13:25.110Z,10.4
2022-10-20T15:14:28.726Z,10.4
2022-10-20T15:15:35.838Z,10.4
2022-10-20T15:16:42.876Z,10.4
2022-10-20T15:17:50.180Z,10.4
2022-10-20T15:18:56.537Z,10.4
2022-10-20T15:20:03.761Z,10.4
2022-10-20T15:21:10.807Z,10.4
2022-10-20T15:22:18.089Z,10.4
2022-10-20T15:23:25.110Z,10.4
2022-10-20T15:25:38.765Z,10.4
2022-10-20T15:26:45.739Z,10.4
2022-10-20T15:27:53.127Z,10.4
2022-10-20T15:29:00.029Z,10.4
2022-10-20T15:30:06.663Z,10.4
2022-10-20T15:31:13.737Z,10.4
2022-10-20T15:32:20.854Z,10.4
2022-10-20T15:33:27.859Z,10.4
2022-10-20T15:34:34.595Z,10.4
2022-10-20T15:35:41.684Z,10.4
2022-10-20T15:36:51.022Z,10.4
2022-10-20T15:37:55.900Z,10.4
2022-10-20T15:39:02.993Z,10.4
2022-10-20T15:40:09.552Z,10.4
2022-10-20T15:41:16.188Z,10.4
2022-10-20T15:42:24.257Z,10.4
2022-10-20T15:43:30.856Z,10.4
2022-10-20T15:44:37.988Z,10.4
2022-10-20T15:45:44.589Z,10.4
2022-10-20T15:46:51.687Z,10.5
2022-10-20T15:47:58.809Z,10.5
2022-10-20T15:49:05.942Z,10.5
2022-10-20T15:50:13.028Z,10.5
2022-10-20T15:51:19.540Z,10.5
2022-10-20T15:52:26.812Z,10.5
2022-10-20T15:54:40.897Z,10.6
2022-10-20T15:55:47.972Z,10.6
2022-10-20T15:56:54.466Z,10.6
2022-10-20T15:58:01.809Z,10.6
2022-10-20T15:59:08.798Z,10.6
2022-10-20T16:00:15.930Z,10.6
2022-10-20T16:02:29.599Z,10.6
2022-10-20T16:03:36.711Z,10.6
2022-10-20T16:04:43.742Z,10.6
2022-10-20T16:07:02.651Z,10.6
2022-10-20T16:08:04.774Z,10.6
2022-10-20T16:10:18.693Z,10.6
2022-10-20T16:11:25.941Z,10.6
2022-10-20T16:12:36.316Z,10.6
2022-10-20T16:13:39.589Z,10.7
2022-10-20T16:14:47.094Z,10.7
2022-10-20T16:15:53.766Z,10.7
2022-10-20T16:17:00.874Z,10.7
2022-10-20T16:18:09.853Z,10.7
2022-10-20T16:19:14.692Z,10.7
2022-10-20T16:20:21.666Z,10.7
2022-10-20T16:21:28.826Z,10.7
2022-10-20T16:22:36.485Z,10.7
2022-10-20T16:23:44.837Z,10.7
2022-10-20T16:24:49.500Z,10.7
2022-10-20T16:25:56.649Z,10.7
2022-10-20T16:28:11.099Z,10.7
2022-10-20T16:29:18.070Z,10.7
2022-10-20T16:30:24.631Z,10.7
2022-10-20T16:31:31.586Z,10.7
2022-10-20T16:32:39.165Z,10.7
2022-10-20T16:33:46.014Z,10.7
2022-10-20T16:34:52.906Z,10.7
2022-10-20T16:35:59.548Z,10.7
2022-10-20T16:37:06.321Z,10.7